createdAt,value
2022-12-22T00:01:13.583Z,98833.22
2022-12-22T00:04:17.188Z,98834.63
2022-12-22T00:07:20.940Z,98829.84
2022-12-22T00:10:24.933Z,98832.97
2022-12-22T00:13:33.252Z,98838.25
2022-12-22T00:16:37.294Z,98831.75
2022-12-22T00:19:41.353Z,98835.44
2022-12-22T00:22:45.288Z,98826.41
2022-12-22T00:25:49.259Z,98830.50
2022-12-22T00:28:53.783Z,98829.75
2022-12-22T00:31:58.419Z,98831.56
2022-12-22T00:35:01.869Z,98820.31
2022-12-22T00:38:05.394Z,98828.97
2022-12-22T00:41:08.827Z,98818.50
2022-12-22T00:44:12.271Z,98810.56
2022-12-22T00:47:15.625Z,98811.16
2022-12-22T00:50:18.918Z,98813.16
2022-12-22T00:53:22.851Z,98815.22
2022-12-22T00:56:27.411Z,98807.88
2022-12-22T00:59:30.650Z,98807.59
2022-12-22T01:02:35.884Z,98801.59
2022-12-22T01:05:39.912Z,98792.03
2022-12-22T01:08:43.235Z,98798.00
2022-12-22T01:11:46.655Z,98790.03
2022-12-22T01:14:50.067Z,98788.09
2022-12-22T01:17:53.339Z,98795.72
2022-12-22T01:20:56.750Z,98790.03
2022-12-22T01:24:00.651Z,98797.66
2022-12-22T01:27:03.865Z,98804.72
2022-12-22T01:30:07.383Z,98793.44
2022-12-22T01:33:10.832Z,98796.41
2022-12-22T01:36:14.155Z,98789.84
2022-12-22T01:39:17.704Z,98796.13
2022-12-22T01:42:21.089Z,98775.13
2022-12-22T01:45:41.431Z,98785.72
2022-12-22T01:48:47.728Z,98780.47
2022-12-22T01:51:51.126Z,98773.47
2022-12-22T01:54:54.575Z,98772.50
2022-12-22T01:57:58.114Z,98782.31
2022-12-22T02:01:03.223Z,98770.06
2022-12-22T02:04:06.607Z,98769.69
2022-12-22T02:07:13.881Z,98766.00
2022-12-22T02:10:29.598Z,98763.28
2022-12-22T02:14:03.048Z,98764.88
2022-12-22T02:17:25.622Z,98767.41
2022-12-22T02:20:32.159Z,98766.63
2022-12-22T02:23:56.819Z,98773.44
2022-12-22T02:27:07.594Z,98770.72
2022-12-22T02:30:18.897Z,98766.44
2022-12-22T02:33:22.470Z,98765.63
2022-12-22T02:36:52.167Z,98767.81
2022-12-22T02:39:58.680Z,98763.19
2022-12-22T02:43:20.361Z,98753.81
2022-12-22T02:46:33.127Z,98762.03
2022-12-22T02:49:41.104Z,98755.81
2022-12-22T02:52:52.842Z,98765.00
2022-12-22T02:55:56.661Z,98756.41
2022-12-22T02:59:00.105Z,98761.50
2022-12-22T03:02:05.267Z,98758.78
2022-12-22T03:05:09.070Z,98752.56
2022-12-22T03:08:12.486Z,98763.31
2022-12-22T03:11:15.801Z,98753.72
2022-12-22T03:14:19.202Z,98757.63
2022-12-22T03:17:22.550Z,98757.00
2022-12-22T03:20:26.995Z,98754.47
2022-12-22T03:23:30.285Z,98751.16
2022-12-22T03:26:15.103Z,98758.25
2022-12-22T03:29:00.115Z,98750.44
2022-12-22T03:31:45.077Z,98749.84
2022-12-22T03:34:30.059Z,98763.91
2022-12-22T03:37:15.097Z,98761.97
2022-12-22T03:39:59.966Z,98755.75
2022-12-22T03:43:03.371Z,98749.13
2022-12-22T03:46:29.245Z,98755.16
2022-12-22T03:49:14.378Z,98754.34
2022-12-22T03:51:59.192Z,98758.13
2022-12-22T03:54:43.934Z,98751.31
2022-12-22T03:57:28.703Z,98745.44
2022-12-22T04:00:14.190Z,98745.44
2022-12-22T04:02:58.931Z,98746.03
2022-12-22T04:05:44.995Z,98739.19
2022-12-22T04:08:29.896Z,98742.34
2022-12-22T04:11:34.617Z,98741.53
2022-12-22T04:14:20.385Z,98754.69
2022-12-22T04:17:07.189Z,98747.06
2022-12-22T04:19:52.113Z,98746.06
2022-12-22T04:22:36.896Z,98739.44
2022-12-22T04:25:22.182Z,98743.38
2022-12-22T04:28:07.160Z,98736.72
2022-12-22T04:30:51.958Z,98733.56
2022-12-22T04:33:37.125Z,98738.88
2022-12-22T04:36:21.898Z,98734.41
2022-12-22T04:39:06.690Z,98736.19
2022-12-22T04:41:51.628Z,98741.25
2022-12-22T04:44:36.704Z,98729.31
2022-12-22T04:47:21.421Z,98728.97
2022-12-22T04:50:06.588Z,98728.16
2022-12-22T04:52:51.657Z,98729.75
2022-12-22T04:55:36.174Z,98727.81
2022-12-22T04:58:21.023Z,98729.75
2022-12-22T05:01:10.168Z,98730.34
2022-12-22T05:03:55.362Z,98730.94
2022-12-22T05:06:40.435Z,98735.25
2022-12-22T05:09:25.345Z,98733.69
2022-12-22T05:12:28.782Z,98743.06
2022-12-22T05:15:13.583Z,98730.91
2022-12-22T05:17:59.746Z,98732.66
2022-12-22T05:20:44.711Z,98734.41
2022-12-22T05:23:29.711Z,98736.94
2022-12-22T05:26:16.770Z,98744.56
2022-12-22T05:29:01.635Z,98737.34
2022-12-22T05:31:47.471Z,98749.16
2022-12-22T05:34:32.635Z,98739.31
2022-12-22T05:37:17.556Z,98749.22
2022-12-22T05:40:02.288Z,98744.69
2022-12-22T05:42:47.270Z,98744.63
2022-12-22T05:45:32.247Z,98740.69
2022-12-22T05:48:19.927Z,98751.19
2022-12-22T05:51:09.945Z,98750.94
2022-12-22T05:53:55.171Z,98761.09
2022-12-22T05:56:40.232Z,98759.09
2022-12-22T05:59:25.032Z,98762.25
2022-12-22T06:02:09.863Z,98763.59
2022-12-22T06:04:54.435Z,98761.03
2022-12-22T06:07:39.304Z,98756.31
2022-12-22T06:10:24.235Z,98755.09
2022-12-22T06:13:09.198Z,98761.16
2022-12-22T06:15:54.067Z,98751.16
2022-12-22T06:18:39.133Z,98753.88
2022-12-22T06:21:23.987Z,98760.34
2022-12-22T06:24:08.764Z,98763.06
2022-12-22T06:26:53.445Z,98757.38
2022-12-22T06:29:38.468Z,98763.94
2022-12-22T06:32:23.689Z,98768.84
2022-12-22T06:35:09.163Z,98779.44
2022-12-22T06:37:54.010Z,98770.25
2022-12-22T06:40:38.880Z,98778.91
2022-12-22T06:43:25.017Z,98786.34
2022-12-22T06:46:09.981Z,98778.91
2022-12-22T06:48:54.716Z,98786.16
2022-12-22T06:51:39.919Z,98791.06
2022-12-22T06:54:26.513Z,98793.25
2022-12-22T06:57:11.330Z,98788.97
2022-12-22T06:59:57.815Z,98786.59
2022-12-22T07:02:44.756Z,98779.56
2022-12-22T07:05:31.238Z,98780.03
2022-12-22T07:08:16.032Z,98785.69
2022-12-22T07:11:01.189Z,98784.75
2022-12-22T07:13:49.688Z,98782.25
2022-12-22T07:16:45.321Z,98781.31
2022-12-22T07:19:30.206Z,98783.50
2022-12-22T07:22:29.953Z,98783.16
2022-12-22T07:25:15.316Z,98794.75
2022-12-22T07:28:00.382Z,98793.44
2022-12-22T07:30:44.945Z,98789.66
2022-12-22T07:33:30.357Z,98796.00
2022-12-22T07:36:21.602Z,98788.19
2022-12-22T07:39:07.128Z,98783.91
2022-12-22T07:42:10.672Z,98793.50
2022-12-22T07:44:55.428Z,98786.13
2022-12-22T07:47:41.251Z,98783.91
2022-12-22T07:50:31.809Z,98788.09
2022-12-22T07:53:16.642Z,98787.81
2022-12-22T07:56:05.190Z,98783.88
2022-12-22T07:58:50.366Z,98784.63
2022-12-22T08:01:38.137Z,98795.06
2022-12-22T08:04:49.709Z,98793.50
2022-12-22T08:07:35.446Z,98793.06
2022-12-22T08:10:31.505Z,98793.84
2022-12-22T08:13:53.432Z,98781.69
2022-12-22T08:16:49.329Z,98773.88
2022-12-22T08:19:36.718Z,98782.16
2022-12-22T08:22:24.927Z,98784.13
2022-12-22T08:25:15.870Z,98779.47
2022-12-22T08:28:02.257Z,98784.81
2022-12-22T08:30:47.858Z,98789.19
2022-12-22T08:33:33.076Z,98783.88
2022-12-22T08:36:18.133Z,98777.03
2022-12-22T08:39:04.714Z,98781.91
2022-12-22T08:42:28.057Z,98779.75
2022-12-22T08:45:37.927Z,98774.06
2022-12-22T08:48:35.117Z,98768.19
2022-12-22T08:51:26.311Z,98769.56
2022-12-22T08:54:11.569Z,98775.06
2022-12-22T08:56:58.125Z,98772.81
2022-12-22T08:59:43.210Z,98780.28
2022-12-22T09:02:28.239Z,98774.41
2022-12-22T09:05:13.176Z,98773.16
2022-12-22T09:07:58.158Z,98779.03
2022-12-22T09:10:45.998Z,98778.59
2022-12-22T09:13:31.146Z,98769.78
2022-12-22T09:16:16.211Z,98765.47
2022-12-22T09:19:06.115Z,98764.25
2022-12-22T09:21:55.322Z,98763.53
2022-12-22T09:24:43.328Z,98750.75
2022-12-22T09:27:30.259Z,98761.03
2022-12-22T09:30:16.606Z,98765.94
2022-12-22T09:33:01.112Z,98769.09
2022-12-22T09:35:45.869Z,98758.72
2022-12-22T09:38:30.727Z,98762.03
2022-12-22T09:41:34.531Z,98764.97
2022-12-22T09:44:33.990Z,98757.75
2022-12-22T09:47:32.753Z,98751.50
2022-12-22T09:50:18.666Z,98754.28
2022-12-22T09:53:06.208Z,98750.94
2022-12-22T09:55:51.587Z,98744.53
2022-12-22T09:58:37.346Z,98743.38
2022-12-22T10:02:19.864Z,98750.00
2022-12-22T10:05:12.335Z,98743.75
2022-12-22T10:08:02.013Z,98734.94
2022-12-22T10:10:56.384Z,98730.03
2022-12-22T10:13:48.239Z,98731.63
2022-12-22T10:16:36.140Z,98733.38
2022-12-22T10:19:21.146Z,98720.25
2022-12-22T10:22:30.727Z,98729.88
2022-12-22T10:26:17.296Z,98730.44
2022-12-22T10:29:08.698Z,98715.63
2022-12-22T10:32:05.032Z,98707.19
2022-12-22T10:35:05.663Z,98702.69
2022-12-22T10:37:58.636Z,98699.78
2022-12-22T10:40:46.286Z,98689.81
2022-12-22T10:43:34.759Z,98697.09
2022-12-22T10:47:01.433Z,98690.31
2022-12-22T10:50:14.533Z,98682.91
2022-12-22T10:53:12.739Z,98669.56
2022-12-22T10:56:53.952Z,98674.28
2022-12-22T10:59:56.569Z,98683.34
2022-12-22T11:02:52.113Z,98688.09
2022-12-22T11:05:37.238Z,98689.47
2022-12-22T11:08:24.395Z,98702.00
2022-12-22T11:11:37.330Z,98701.22
2022-12-22T11:14:38.384Z,98689.66
2022-12-22T11:18:01.694Z,98702.97
2022-12-22T11:21:24.002Z,98691.38
2022-12-22T11:25:06.152Z,98693.31
2022-12-22T11:28:15.918Z,98698.19
2022-12-22T11:31:24.497Z,98691.53
2022-12-22T11:34:40.409Z,98683.88
2022-12-22T11:37:59.305Z,98687.97
2022-12-22T11:41:21.454Z,98679.75
2022-12-22T11:44:58.674Z,98678.00
2022-12-22T11:47:53.100Z,98672.91
2022-12-22T11:50:59.671Z,98666.06
2022-12-22T11:54:13.777Z,98652.97
2022-12-22T11:57:23.568Z,98653.34
2022-12-22T12:00:10.382Z,98656.63
2022-12-22T12:03:43.603Z,98660.59
2022-12-22T12:06:47.095Z,98661.19
2022-12-22T12:09:32.329Z,98657.06
2022-12-22T12:12:36.856Z,98659.59
2022-12-22T12:15:29.448Z,98652.34
2022-12-22T12:18:53.630Z,98653.13
2022-12-22T12:21:49.468Z,98649.63
2022-12-22T12:25:50.565Z,98654.09
2022-12-22T12:28:53.411Z,98651.38
2022-12-22T12:31:46.219Z,98656.84
2022-12-22T12:34:37.111Z,98654.88
2022-12-22T12:37:29.831Z,98647.81
2022-12-22T12:40:33.649Z,98663.25
2022-12-22T12:43:20.783Z,98654.41
2022-12-22T12:46:42.619Z,98659.50
2022-12-22T12:49:36.075Z,98658.72
2022-12-22T12:53:02.263Z,98649.69
2022-12-22T12:55:49.731Z,98648.91
2022-12-22T12:58:34.936Z,98652.25
2022-12-22T13:01:28.949Z,98656.13
2022-12-22T13:04:51.871Z,98653.41
2022-12-22T13:08:07.896Z,98654.19
2022-12-22T13:10:55.441Z,98650.84
2022-12-22T13:13:40.556Z,98649.28
2022-12-22T13:16:26.629Z,98647.53
2022-12-22T13:19:19.292Z,98647.53
2022-12-22T13:22:07.972Z,98640.69
2022-12-22T13:24:55.475Z,98640.31
2022-12-22T13:27:40.862Z,98646.00
2022-12-22T13:30:29.984Z,98640.09
2022-12-22T13:33:19.331Z,98639.53
2022-12-22T13:36:08.070Z,98651.06
2022-12-22T13:39:05.212Z,98652.81
2022-12-22T13:41:51.452Z,98654.22
2022-12-22T13:44:38.229Z,98647.94
2022-12-22T13:51:08.688Z,98641.13
2022-12-22T13:54:09.170Z,98648.38
2022-12-22T13:56:57.982Z,98647.00
2022-12-22T13:59:45.075Z,98650.31
2022-12-22T14:02:32.603Z,98657.16
2022-12-22T14:05:18.807Z,98651.50
2022-12-22T14:08:05.723Z,98651.50
2022-12-22T14:10:51.544Z,98652.44
2022-12-22T14:13:38.940Z,98649.50
2022-12-22T14:16:24.136Z,98661.25
2022-12-22T14:19:13.253Z,98663.41
2022-12-22T14:22:08.865Z,98658.91
2022-12-22T14:24:58.706Z,98660.50
2022-12-22T14:27:47.352Z,98658.72
2022-12-22T14:30:39.091Z,98657.56
2022-12-22T14:33:27.163Z,98656.59
2022-12-22T14:36:23.272Z,98648.00
2022-12-22T14:39:09.958Z,98644.66
2022-12-22T14:41:57.539Z,98644.28
2022-12-22T14:44:45.291Z,98642.31
2022-12-22T14:47:30.043Z,98635.66
2022-12-22T14:50:21.141Z,98631.34
2022-12-22T14:53:06.111Z,98629.00
2022-12-22T14:55:51.463Z,98639.78
2022-12-22T14:58:40.799Z,98650.13
2022-12-22T15:01:27.735Z,98654.47
2022-12-22T15:04:19.909Z,98652.09
2022-12-22T15:08:03.210Z,98650.91
2022-12-22T15:10:37.720Z,98647.94
2022-12-22T15:13:24.047Z,98652.63
2022-12-22T15:16:14.134Z,98646.94
2022-12-22T15:18:58.877Z,98639.91
2022-12-22T15:21:44.104Z,98636.94
2022-12-22T15:24:28.764Z,98633.81
2022-12-22T15:27:13.905Z,98634.75
2022-12-22T15:29:58.288Z,98637.72
2022-12-22T15:32:43.499Z,98642.97
2022-12-22T15:35:33.756Z,98648.25
2022-12-22T15:38:21.181Z,98650.00
2022-12-22T15:41:07.065Z,98651.16
2022-12-22T15:43:57.815Z,98656.47
2022-12-22T15:46:49.133Z,98653.28
2022-12-22T15:49:34.015Z,98656.03
2022-12-22T15:52:18.943Z,98662.09
2022-12-22T15:55:04.252Z,98652.28
2022-12-22T15:57:51.168Z,98650.53
2022-12-22T16:00:36.063Z,98651.53
2022-12-22T16:03:21.034Z,98658.38
2022-12-22T16:06:12.956Z,98653.44
2022-12-22T16:08:57.840Z,98654.25
2022-12-22T16:11:42.755Z,98648.56
2022-12-22T16:14:29.272Z,98654.25
2022-12-22T16:17:21.860Z,98650.53
2022-12-22T16:20:08.577Z,98649.56
2022-12-22T16:22:53.760Z,98642.91
2022-12-22T16:25:39.315Z,98647.81
2022-12-22T16:28:24.842Z,98645.88
2022-12-22T16:31:17.426Z,98637.44
2022-12-22T16:34:02.314Z,98642.16
2022-12-22T16:36:47.283Z,98638.25
2022-12-22T16:39:31.952Z,98648.81
2022-12-22T16:45:25.204Z,98647.03
2022-12-22T16:48:26.406Z,98642.16
2022-12-22T16:51:17.684Z,98643.13
2022-12-22T16:54:03.916Z,98642.34
2022-12-22T16:56:51.284Z,98639.78
2022-12-22T16:59:35.955Z,98640.19
2022-12-22T17:02:28.523Z,98643.50
2022-12-22T17:05:24.168Z,98638.03
2022-12-22T17:08:34.205Z,98638.81
2022-12-22T17:11:23.375Z,98643.28
2022-12-22T17:14:28.006Z,98635.06
2022-12-22T17:17:17.932Z,98636.44
2022-12-22T17:20:03.704Z,98629.81
2022-12-22T17:22:58.369Z,98629.00
2022-12-22T17:25:43.443Z,98630.75
2022-12-22T17:28:28.490Z,98619.38
2022-12-22T17:31:15.396Z,98617.47
2022-12-22T17:34:00.518Z,98612.16
2022-12-22T17:36:46.193Z,98622.53
2022-12-22T17:39:33.409Z,98613.16
2022-12-22T17:42:20.933Z,98623.50
2022-12-22T17:45:13.182Z,98618.41
2022-12-22T17:47:58.081Z,98609.22
2022-12-22T17:50:44.334Z,98616.09
2022-12-22T17:53:30.227Z,98612.16
2022-12-22T17:56:18.154Z,98607.44
2022-12-22T17:59:03.156Z,98611.75
2022-12-22T18:01:48.319Z,98617.03
2022-12-22T18:04:33.195Z,98621.91
2022-12-22T18:07:21.110Z,98610.16
2022-12-22T18:10:06.635Z,98608.00
2022-12-22T18:12:53.397Z,98609.94
2022-12-22T18:15:38.205Z,98606.44
2022-12-22T18:18:23.660Z,98606.44
2022-12-22T18:21:24.293Z,98606.59
2022-12-22T18:24:16.151Z,98598.03
2022-12-22T18:27:00.981Z,98594.88
2022-12-22T18:29:49.464Z,98595.69
2022-12-22T18:32:34.069Z,98584.72
2022-12-22T18:35:21.889Z,98585.31
2022-12-22T18:38:07.082Z,98583.19
2022-12-22T18:40:52.135Z,98577.91
2022-12-22T18:43:37.251Z,98576.75
2022-12-22T18:46:23.261Z,98582.03
2022-12-22T18:49:08.216Z,98580.44
2022-12-22T18:51:52.950Z,98591.59
2022-12-22T18:54:39.237Z,98592.38
2022-12-22T18:57:24.387Z,98579.06
2022-12-22T19:00:13.985Z,98574.19
2022-12-22T19:03:00.629Z,98573.38
2022-12-22T19:05:46.986Z,98571.63
2022-12-22T19:08:31.816Z,98574.19
2022-12-22T19:11:17.736Z,98572.44
2022-12-22T19:14:03.573Z,98581.81
2022-12-22T19:16:48.627Z,98578.66
2022-12-22T19:19:33.352Z,98569.47
2022-12-22T19:22:18.090Z,98570.84
2022-12-22T19:25:03.107Z,98580.06
2022-12-22T19:27:51.987Z,98571.81
2022-12-22T19:30:36.863Z,98568.88
2022-12-22T19:33:28.853Z,98575.16
2022-12-22T19:36:17.461Z,98568.69
2022-12-22T19:39:05.418Z,98567.72
2022-12-22T19:41:53.502Z,98572.00
2022-12-22T19:44:38.580Z,98574.34
2022-12-22T19:47:26.329Z,98564.19
2022-12-22T19:50:20.484Z,98565.75
2022-12-22T19:53:05.247Z,98562.25
2022-12-22T19:55:54.038Z,98562.44
2022-12-22T19:58:40.120Z,98560.69
2022-12-22T20:01:25.449Z,98559.31
2022-12-22T20:04:13.662Z,98552.63
2022-12-22T20:06:58.555Z,98567.09
2022-12-22T20:09:43.946Z,98561.06
2022-12-22T20:12:38.573Z,98558.72
2022-12-22T20:15:34.209Z,98553.81
2022-12-22T20:18:22.861Z,98560.25
2022-12-22T20:21:11.861Z,98559.31
2022-12-22T20:23:59.013Z,98545.59
2022-12-22T20:26:47.288Z,98550.50
2022-12-22T20:29:34.970Z,98547.78
2022-12-22T20:32:27.341Z,98546.81
2022-12-22T20:35:13.158Z,98547.41
2022-12-22T20:37:58.676Z,98543.09
2022-12-22T20:40:44.413Z,98543.69
2022-12-22T20:43:30.929Z,98538.59
2022-12-22T20:46:17.745Z,98538.44
2022-12-22T20:49:03.922Z,98534.91
2022-12-22T20:51:48.907Z,98528.06
2022-12-22T20:54:34.406Z,98522.19
2022-12-22T20:57:22.072Z,98524.56
2022-12-22T21:00:07.773Z,98518.84
2022-12-22T21:02:53.850Z,98515.56
2022-12-22T21:05:38.656Z,98511.81
2022-12-22T21:08:25.700Z,98508.91
2022-12-22T21:11:10.724Z,98495.59
2022-12-22T21:13:56.987Z,98499.69
2022-12-22T21:16:42.774Z,98493.22
2022-12-22T21:19:27.539Z,98494.59
2022-12-22T21:22:12.451Z,98482.88
2022-12-22T21:24:57.395Z,98481.69
2022-12-22T21:27:44.673Z,98477.97
2022-12-22T21:30:29.578Z,98478.38
2022-12-22T21:33:14.202Z,98475.63
2022-12-22T21:36:02.169Z,98471.34
2022-12-22T21:38:48.095Z,98475.63
2022-12-22T21:41:51.799Z,98474.47
2022-12-22T21:44:36.702Z,98485.22
2022-12-22T21:47:21.437Z,98479.19
2022-12-22T21:50:07.014Z,98481.13
2022-12-22T21:52:52.432Z,98481.13
2022-12-22T21:55:38.623Z,98481.31
2022-12-22T21:58:23.614Z,98473.28
2022-12-22T22:01:12.681Z,98470.75
2022-12-22T22:03:57.670Z,98459.19
2022-12-22T22:06:42.710Z,98452.56
2022-12-22T22:09:27.468Z,98456.06
2022-12-22T22:12:30.619Z,98453.72
2022-12-22T22:15:15.728Z,98443.94
2022-12-22T22:18:06.536Z,98433.97
2022-12-22T22:20:52.139Z,98439.22
2022-12-22T22:23:37.583Z,98435.72
2022-12-22T22:26:22.036Z,98440.00
2022-12-22T22:29:06.892Z,98441.19
2022-12-22T22:31:51.481Z,98435.31
2022-12-22T22:34:36.485Z,98430.22
2022-12-22T22:37:21.463Z,98421.22
2022-12-22T22:40:09.319Z,98425.34
2022-12-22T22:42:56.207Z,98429.66
2022-12-22T22:45:42.519Z,98431.19
2022-12-22T22:48:27.105Z,98424.94
2022-12-22T22:51:12.070Z,98417.31
2022-12-22T22:53:57.039Z,98412.22
2022-12-22T22:56:42.189Z,98407.34
2022-12-22T22:59:26.976Z,98417.50
2022-12-22T23:02:15.435Z,98421.81
2022-12-22T23:05:00.657Z,98420.22
2022-12-22T23:07:45.591Z,98412.81
2022-12-22T23:10:32.708Z,98415.34
2022-12-22T23:13:21.248Z,98418.06
2022-12-22T23:16:06.121Z,98417.47
2022-12-22T23:18:52.704Z,98425.31
2022-12-22T23:21:37.583Z,98420.59
2022-12-22T23:24:22.864Z,98416.47
2022-12-22T23:27:07.568Z,98418.44
2022-12-22T23:29:52.336Z,98419.22
2022-12-22T23:32:37.486Z,98413.56
2022-12-22T23:35:22.215Z,98417.84
2022-12-22T23:38:10.646Z,98413.72
2022-12-22T23:41:07.350Z,98416.66
2022-12-22T23:43:52.905Z,98410.00
2022-12-22T23:46:37.815Z,98405.91
2022-12-22T23:49:22.918Z,98406.69
2022-12-22T23:52:07.804Z,98398.28
2022-12-22T23:54:52.838Z,98392.25
2022-12-22T23:57:38.222Z,98395.75
